sensor_id;sensor_type;location;lat;lon;timestamp;P1;durP1;ratioP1;P2;durP2;ratioP2
38117;SDS011;23928;47.562;7.508;2023-04-12T00:00:32;2.33;;;1.60;;
38117;SDS011;23928;47.562;7.508;2023-04-12T00:02:57;3.20;;;1.90;;
38117;SDS011;23928;47.562;7.508;2023-04-12T00:05:27;3.53;;;1.53;;
38117;SDS011;23928;47.562;7.508;2023-04-12T00:07:53;2.57;;;1.57;;
38117;SDS011;23928;47.562;7.508;2023-04-12T00:10:19;4.53;;;1.87;;
38117;SDS011;23928;47.562;7.508;2023-04-12T00:12:45;3.67;;;1.80;;
38117;SDS011;23928;47.562;7.508;2023-04-12T00:15:11;3.80;;;1.83;;
38117;SDS011;23928;47.562;7.508;2023-04-12T00:17:37;6.13;;;1.93;;
38117;SDS011;23928;47.562;7.508;2023-04-12T00:20:03;4.50;;;1.77;;
38117;SDS011;23928;47.562;7.508;2023-04-12T00:22:29;2.27;;;1.93;;
38117;SDS011;23928;47.562;7.508;2023-04-12T00:24:55;2.73;;;2.10;;
38117;SDS011;23928;47.562;7.508;2023-04-12T00:27:22;2.97;;;1.70;;
38117;SDS011;23928;47.562;7.508;2023-04-12T00:29:47;5.43;;;2.17;;
38117;SDS011;23928;47.562;7.508;2023-04-12T00:32:13;3.57;;;1.97;;
38117;SDS011;23928;47.562;7.508;2023-04-12T00:34:38;2.90;;;1.67;;
38117;SDS011;23928;47.562;7.508;2023-04-12T00:37:04;1.93;;;1.60;;
38117;SDS011;23928;47.562;7.508;2023-04-12T00:39:30;3.77;;;1.93;;
38117;SDS011;23928;47.562;7.508;2023-04-12T00:41:55;4.47;;;2.10;;
38117;SDS011;23928;47.562;7.508;2023-04-12T00:44:22;3.87;;;1.70;;
38117;SDS011;23928;47.562;7.508;2023-04-12T00:46:47;7.27;;;2.70;;
38117;SDS011;23928;47.562;7.508;2023-04-12T00:49:13;3.83;;;1.80;;
38117;SDS011;23928;47.562;7.508;2023-04-12T00:51:39;6.10;;;2.97;;
38117;SDS011;23928;47.562;7.508;2023-04-12T00:54:06;4.77;;;2.10;;
38117;SDS011;23928;47.562;7.508;2023-04-12T00:56:32;3.43;;;2.00;;
38117;SDS011;23928;47.562;7.508;2023-04-12T00:58:58;5.80;;;2.43;;
38117;SDS011;23928;47.562;7.508;2023-04-12T01:01:24;3.77;;;2.40;;
38117;SDS011;23928;47.562;7.508;2023-04-12T01:03:52;5.43;;;2.57;;
38117;SDS011;23928;47.562;7.508;2023-04-12T01:09:49;5.77;;;2.27;;
38117;SDS011;23928;47.562;7.508;2023-04-12T01:17:42;4.00;;;2.57;;
38117;SDS011;23928;47.562;7.508;2023-04-12T01:20:14;4.27;;;2.47;;
38117;SDS011;23928;47.562;7.508;2023-04-12T01:28:32;4.30;;;2.80;;
38117;SDS011;23928;47.562;7.508;2023-04-12T01:31:02;3.30;;;2.63;;
38117;SDS011;23928;47.562;7.508;2023-04-12T01:33:30;3.43;;;2.60;;
38117;SDS011;23928;47.562;7.508;2023-04-12T01:36:00;9.13;;;3.23;;
38117;SDS011;23928;47.562;7.508;2023-04-12T01:38:30;6.43;;;3.00;;
38117;SDS011;23928;47.562;7.508;2023-04-12T01:40:58;5.37;;;3.00;;
38117;SDS011;23928;47.562;7.508;2023-04-12T01:43:24;8.67;;;3.70;;
38117;SDS011;23928;47.562;7.508;2023-04-12T01:45:49;7.20;;;3.40;;
38117;SDS011;23928;47.562;7.508;2023-04-12T01:48:15;4.40;;;2.87;;
38117;SDS011;23928;47.562;7.508;2023-04-12T01:50:47;4.83;;;2.37;;
38117;SDS011;23928;47.562;7.508;2023-04-12T01:56:12;3.50;;;2.50;;
38117;SDS011;23928;47.562;7.508;2023-04-12T01:58:39;5.60;;;3.03;;
38117;SDS011;23928;47.562;7.508;2023-04-12T02:01:07;7.03;;;2.90;;
38117;SDS011;23928;47.562;7.508;2023-04-12T02:03:35;4.27;;;2.30;;
38117;SDS011;23928;47.562;7.508;2023-04-12T02:06:03;4.63;;;2.60;;
38117;SDS011;23928;47.562;7.508;2023-04-12T02:08:29;3.80;;;2.43;;
38117;SDS011;23928;47.562;7.508;2023-04-12T02:10:55;3.53;;;3.00;;
38117;SDS011;23928;47.562;7.508;2023-04-12T02:13:21;3.37;;;2.20;;
38117;SDS011;23928;47.562;7.508;2023-04-12T02:15:46;3.73;;;2.17;;
38117;SDS011;23928;47.562;7.508;2023-04-12T02:18:12;3.63;;;2.00;;
38117;SDS011;23928;47.562;7.508;2023-04-12T02:20:40;3.43;;;2.00;;
38117;SDS011;23928;47.562;7.508;2023-04-12T02:23:07;4.93;;;2.30;;
38117;SDS011;23928;47.562;7.508;2023-04-12T02:25:33;5.77;;;2.40;;
38117;SDS011;23928;47.562;7.508;2023-04-12T02:27:59;3.27;;;2.20;;
38117;SDS011;23928;47.562;7.508;2023-04-12T02:30:25;4.33;;;2.20;;
38117;SDS011;23928;47.562;7.508;2023-04-12T02:32:51;5.13;;;2.53;;
38117;SDS011;23928;47.562;7.508;2023-04-12T02:35:17;2.43;;;2.20;;
38117;SDS011;23928;47.562;7.508;2023-04-12T02:37:43;5.50;;;2.07;;
38117;SDS011;23928;47.562;7.508;2023-04-12T02:40:13;4.47;;;2.50;;
38117;SDS011;23928;47.562;7.508;2023-04-12T02:42:40;2.63;;;2.00;;
38117;SDS011;23928;47.562;7.508;2023-04-12T02:45:09;4.90;;;2.13;;
38117;SDS011;23928;47.562;7.508;2023-04-12T02:47:35;3.87;;;2.07;;
38117;SDS011;23928;47.562;7.508;2023-04-12T02:50:02;3.47;;;2.30;;
38117;SDS011;23928;47.562;7.508;2023-04-12T02:52:28;4.00;;;2.40;;
38117;SDS011;23928;47.562;7.508;2023-04-12T02:54:54;4.47;;;2.20;;
38117;SDS011;23928;47.562;7.508;2023-04-12T02:57:20;3.87;;;2.50;;
38117;SDS011;23928;47.562;7.508;2023-04-12T02:59:47;5.73;;;3.00;;
38117;SDS011;23928;47.562;7.508;2023-04-12T03:02:17;7.03;;;2.90;;
38117;SDS011;23928;47.562;7.508;2023-04-12T03:04:43;5.27;;;2.53;;
38117;SDS011;23928;47.562;7.508;2023-04-12T03:07:10;5.83;;;3.00;;
38117;SDS011;23928;47.562;7.508;2023-04-12T03:09:37;4.47;;;3.03;;
38117;SDS011;23928;47.562;7.508;2023-04-12T03:12:02;4.57;;;3.20;;
38117;SDS011;23928;47.562;7.508;2023-04-12T03:14:28;6.30;;;2.67;;
38117;SDS011;23928;47.562;7.508;2023-04-12T03:16:54;5.07;;;3.47;;
38117;SDS011;23928;47.562;7.508;2023-04-12T03:19:20;6.93;;;3.13;;
38117;SDS011;23928;47.562;7.508;2023-04-12T03:21:46;3.47;;;3.10;;
38117;SDS011;23928;47.562;7.508;2023-04-12T03:24:12;5.43;;;3.40;;
38117;SDS011;23928;47.562;7.508;2023-04-12T03:26:38;5.33;;;3.80;;
38117;SDS011;23928;47.562;7.508;2023-04-12T03:29:03;5.67;;;3.60;;
38117;SDS011;23928;47.562;7.508;2023-04-12T03:31:29;6.93;;;3.73;;
38117;SDS011;23928;47.562;7.508;2023-04-12T03:33:55;4.80;;;3.37;;
38117;SDS011;23928;47.562;7.508;2023-04-12T03:36:21;7.33;;;3.80;;
38117;SDS011;23928;47.562;7.508;2023-04-12T03:38:47;5.27;;;3.67;;
38117;SDS011;23928;47.562;7.508;2023-04-12T03:41:12;7.50;;;3.63;;
38117;SDS011;23928;47.562;7.508;2023-04-12T03:43:39;4.90;;;3.27;;
38117;SDS011;23928;47.562;7.508;2023-04-12T03:46:06;5.70;;;3.93;;
38117;SDS011;23928;47.562;7.508;2023-04-12T03:48:32;7.73;;;3.60;;
38117;SDS011;23928;47.562;7.508;2023-04-12T03:50:58;5.37;;;3.70;;
38117;SDS011;23928;47.562;7.508;2023-04-12T03:53:24;5.80;;;3.67;;
38117;SDS011;23928;47.562;7.508;2023-04-12T03:55:55;7.27;;;3.83;;
38117;SDS011;23928;47.562;7.508;2023-04-12T03:58:21;6.70;;;4.20;;
38117;SDS011;23928;47.562;7.508;2023-04-12T04:00:46;8.73;;;4.27;;
38117;SDS011;23928;47.562;7.508;2023-04-12T04:03:13;4.83;;;3.80;;
38117;SDS011;23928;47.562;7.508;2023-04-12T04:05:39;7.13;;;4.27;;
38117;SDS011;23928;47.562;7.508;2023-04-12T04:08:04;7.27;;;4.00;;
38117;SDS011;23928;47.562;7.508;2023-04-12T04:10:31;6.97;;;4.67;;
38117;SDS011;23928;47.562;7.508;2023-04-12T04:12:57;4.57;;;3.37;;
38117;SDS011;23928;47.562;7.508;2023-04-12T04:15:26;4.50;;;3.57;;
38117;SDS011;23928;47.562;7.508;2023-04-12T04:17:52;6.73;;;4.47;;
38117;SDS011;23928;47.562;7.508;2023-04-12T04:20:18;7.67;;;4.30;;
38117;SDS011;23928;47.562;7.508;2023-04-12T04:22:44;6.07;;;4.20;;
38117;SDS011;23928;47.562;7.508;2023-04-12T04:25:14;5.23;;;4.20;;
38117;SDS011;23928;47.562;7.508;2023-04-12T04:27:40;6.97;;;4.60;;
38117;SDS011;23928;47.562;7.508;2023-04-12T04:30:08;4.80;;;4.10;;
38117;SDS011;23928;47.562;7.508;2023-04-12T04:32:35;8.47;;;4.27;;
38117;SDS011;23928;47.562;7.508;2023-04-12T04:35:02;6.20;;;4.57;;
38117;SDS011;23928;47.562;7.508;2023-04-12T04:37:28;5.63;;;4.03;;
38117;SDS011;23928;47.562;7.508;2023-04-12T04:39:54;4.80;;;4.00;;
38117;SDS011;23928;47.562;7.508;2023-04-12T04:42:20;5.47;;;4.17;;
38117;SDS011;23928;47.562;7.508;2023-04-12T04:44:47;8.47;;;4.00;;
38117;SDS011;23928;47.562;7.508;2023-04-12T04:47:15;9.13;;;4.67;;
38117;SDS011;23928;47.562;7.508;2023-04-12T04:49:42;5.63;;;3.73;;
38117;SDS011;23928;47.562;7.508;2023-04-12T04:52:08;5.93;;;4.10;;
38117;SDS011;23928;47.562;7.508;2023-04-12T04:54:34;5.20;;;4.20;;
38117;SDS011;23928;47.562;7.508;2023-04-12T04:57:00;11.07;;;5.13;;
38117;SDS011;23928;47.562;7.508;2023-04-12T04:59:26;10.77;;;5.60;;
38117;SDS011;23928;47.562;7.508;2023-04-12T05:01:51;7.17;;;5.20;;
38117;SDS011;23928;47.562;7.508;2023-04-12T05:04:17;7.57;;;5.43;;
38117;SDS011;23928;47.562;7.508;2023-04-12T05:06:43;9.83;;;6.30;;
38117;SDS011;23928;47.562;7.508;2023-04-12T05:09:10;8.33;;;5.40;;
38117;SDS011;23928;47.562;7.508;2023-04-12T05:11:35;11.37;;;5.53;;
38117;SDS011;23928;47.562;7.508;2023-04-12T05:14:01;9.20;;;5.57;;
38117;SDS011;23928;47.562;7.508;2023-04-12T05:16:27;9.97;;;5.77;;
38117;SDS011;23928;47.562;7.508;2023-04-12T05:18:52;8.40;;;5.20;;
38117;SDS011;23928;47.562;7.508;2023-04-12T05:21:18;7.30;;;5.43;;
38117;SDS011;23928;47.562;7.508;2023-04-12T05:23:44;7.90;;;4.63;;
38117;SDS011;23928;47.562;7.508;2023-04-12T05:26:11;8.77;;;5.10;;
38117;SDS011;23928;47.562;7.508;2023-04-12T05:28:36;10.30;;;5.33;;
38117;SDS011;23928;47.562;7.508;2023-04-12T05:31:02;7.27;;;4.63;;
38117;SDS011;23928;47.562;7.508;2023-04-12T05:33:28;9.83;;;5.47;;
38117;SDS011;23928;47.562;7.508;2023-04-12T05:35:55;6.93;;;5.37;;
38117;SDS011;23928;47.562;7.508;2023-04-12T05:38:21;10.97;;;5.40;;
38117;SDS011;23928;47.562;7.508;2023-04-12T05:40:47;6.30;;;5.03;;
38117;SDS011;23928;47.562;7.508;2023-04-12T05:43:14;9.37;;;5.43;;
38117;SDS011;23928;47.562;7.508;2023-04-12T05:45:39;8.20;;;4.80;;
38117;SDS011;23928;47.562;7.508;2023-04-12T05:48:05;6.67;;;5.00;;
38117;SDS011;23928;47.562;7.508;2023-04-12T05:50:31;7.57;;;5.23;;
38117;SDS011;23928;47.562;7.508;2023-04-12T05:52:58;8.60;;;5.03;;
38117;SDS011;23928;47.562;7.508;2023-04-12T05:55:25;6.53;;;4.90;;
38117;SDS011;23928;47.562;7.508;2023-04-12T05:57:51;5.83;;;4.63;;
38117;SDS011;23928;47.562;7.508;2023-04-12T06:00:18;6.00;;;4.73;;
38117;SDS011;23928;47.562;7.508;2023-04-12T06:02:45;6.83;;;4.80;;
38117;SDS011;23928;47.562;7.508;2023-04-12T06:05:11;7.20;;;4.13;;
38117;SDS011;23928;47.562;7.508;2023-04-12T06:07:38;4.70;;;4.07;;
38117;SDS011;23928;47.562;7.508;2023-04-12T06:10:06;7.90;;;4.27;;
38117;SDS011;23928;47.562;7.508;2023-04-12T06:12:33;8.00;;;4.47;;
38117;SDS011;23928;47.562;7.508;2023-04-12T06:14:59;8.17;;;4.10;;
38117;SDS011;23928;47.562;7.508;2023-04-12T06:17:25;6.30;;;4.67;;
38117;SDS011;23928;47.562;7.508;2023-04-12T06:19:50;7.73;;;5.40;;
38117;SDS011;23928;47.562;7.508;2023-04-12T06:22:16;7.90;;;4.70;;
38117;SDS011;23928;47.562;7.508;2023-04-12T06:24:41;7.83;;;4.43;;
38117;SDS011;23928;47.562;7.508;2023-04-12T06:27:07;11.80;;;5.43;;
38117;SDS011;23928;47.562;7.508;2023-04-12T06:29:33;10.37;;;5.00;;
38117;SDS011;23928;47.562;7.508;2023-04-12T06:31:58;6.23;;;4.67;;
38117;SDS011;23928;47.562;7.508;2023-04-12T06:34:24;7.40;;;4.27;;
38117;SDS011;23928;47.562;7.508;2023-04-12T06:36:49;7.30;;;4.60;;
38117;SDS011;23928;47.562;7.508;2023-04-12T06:39:15;8.90;;;4.50;;
38117;SDS011;23928;47.562;7.508;2023-04-12T06:41:41;6.13;;;4.37;;
38117;SDS011;23928;47.562;7.508;2023-04-12T06:44:11;7.10;;;4.70;;
38117;SDS011;23928;47.562;7.508;2023-04-12T06:46:37;7.17;;;4.83;;
38117;SDS011;23928;47.562;7.508;2023-04-12T06:49:02;9.63;;;5.37;;
38117;SDS011;23928;47.562;7.508;2023-04-12T06:51:28;11.40;;;6.77;;
38117;SDS011;23928;47.562;7.508;2023-04-12T06:53:54;7.53;;;4.43;;
38117;SDS011;23928;47.562;7.508;2023-04-12T06:56:21;7.97;;;5.03;;
38117;SDS011;23928;47.562;7.508;2023-04-12T06:58:47;11.83;;;5.07;;
38117;SDS011;23928;47.562;7.508;2023-04-12T07:01:12;8.87;;;4.80;;
38117;SDS011;23928;47.562;7.508;2023-04-12T07:03:38;7.97;;;4.70;;
38117;SDS011;23928;47.562;7.508;2023-04-12T07:06:04;9.27;;;4.47;;
38117;SDS011;23928;47.562;7.508;2023-04-12T07:08:33;7.70;;;4.67;;
38117;SDS011;23928;47.562;7.508;2023-04-12T07:11:00;7.37;;;4.63;;
38117;SDS011;23928;47.562;7.508;2023-04-12T07:13:26;5.43;;;4.77;;
38117;SDS011;23928;47.562;7.508;2023-04-12T07:15:52;6.70;;;4.57;;
38117;SDS011;23928;47.562;7.508;2023-04-12T07:18:18;5.57;;;4.13;;
38117;SDS011;23928;47.562;7.508;2023-04-12T07:20:45;7.70;;;4.70;;
38117;SDS011;23928;47.562;7.508;2023-04-12T07:23:12;5.37;;;4.33;;
38117;SDS011;23928;47.562;7.508;2023-04-12T07:25:38;6.53;;;4.43;;
38117;SDS011;23928;47.562;7.508;2023-04-12T07:28:04;7.20;;;4.43;;
38117;SDS011;23928;47.562;7.508;2023-04-12T07:30:30;5.73;;;3.90;;
38117;SDS011;23928;47.562;7.508;2023-04-12T07:32:56;7.37;;;4.57;;
38117;SDS011;23928;47.562;7.508;2023-04-12T07:35:21;5.27;;;3.53;;
38117;SDS011;23928;47.562;7.508;2023-04-12T07:37:47;7.30;;;4.60;;
38117;SDS011;23928;47.562;7.508;2023-04-12T07:40:13;7.47;;;4.07;;
38117;SDS011;23928;47.562;7.508;2023-04-12T07:42:38;6.37;;;3.70;;
38117;SDS011;23928;47.562;7.508;2023-04-12T07:45:04;8.60;;;4.13;;
38117;SDS011;23928;47.562;7.508;2023-04-12T07:47:30;6.10;;;3.77;;
38117;SDS011;23928;47.562;7.508;2023-04-12T07:49:56;5.60;;;3.90;;
38117;SDS011;23928;47.562;7.508;2023-04-12T07:52:23;5.00;;;3.37;;
38117;SDS011;23928;47.562;7.508;2023-04-12T07:54:48;5.93;;;3.70;;
38117;SDS011;23928;47.562;7.508;2023-04-12T07:57:14;6.13;;;3.80;;
38117;SDS011;23928;47.562;7.508;2023-04-12T07:59:40;7.43;;;3.87;;
38117;SDS011;23928;47.562;7.508;2023-04-12T08:02:05;31.63;;;19.07;;
38117;SDS011;23928;47.562;7.508;2023-04-12T08:04:31;5.77;;;4.33;;
38117;SDS011;23928;47.562;7.508;2023-04-12T08:06:56;10.30;;;6.97;;
38117;SDS011;23928;47.562;7.508;2023-04-12T08:09:22;6.47;;;4.40;;
38117;SDS011;23928;47.562;7.508;2023-04-12T08:11:48;5.30;;;4.20;;
38117;SDS011;23928;47.562;7.508;2023-04-12T08:14:14;6.07;;;4.30;;
38117;SDS011;23928;47.562;7.508;2023-04-12T08:16:39;5.40;;;3.70;;
38117;SDS011;23928;47.562;7.508;2023-04-12T08:19:05;5.50;;;4.70;;
38117;SDS011;23928;47.562;7.508;2023-04-12T08:21:31;11.37;;;4.83;;
38117;SDS011;23928;47.562;7.508;2023-04-12T08:23:57;4.87;;;3.27;;
38117;SDS011;23928;47.562;7.508;2023-04-12T08:26:23;5.80;;;3.50;;
38117;SDS011;23928;47.562;7.508;2023-04-12T08:28:50;6.37;;;3.57;;
38117;SDS011;23928;47.562;7.508;2023-04-12T08:31:16;6.87;;;6.07;;
38117;SDS011;23928;47.562;7.508;2023-04-12T08:33:42;5.93;;;4.60;;
38117;SDS011;23928;47.562;7.508;2023-04-12T08:36:08;6.53;;;3.87;;
38117;SDS011;23928;47.562;7.508;2023-04-12T08:38:35;6.27;;;3.90;;
38117;SDS011;23928;47.562;7.508;2023-04-12T08:41:03;3.50;;;3.20;;
38117;SDS011;23928;47.562;7.508;2023-04-12T08:43:29;5.23;;;3.47;;
38117;SDS011;23928;47.562;7.508;2023-04-12T08:45:57;5.33;;;3.57;;
38117;SDS011;23928;47.562;7.508;2023-04-12T08:48:23;6.73;;;4.07;;
38117;SDS011;23928;47.562;7.508;2023-04-12T08:50:50;10.03;;;4.10;;
38117;SDS011;23928;47.562;7.508;2023-04-12T08:53:16;8.67;;;3.57;;
38117;SDS011;23928;47.562;7.508;2023-04-12T08:55:43;5.63;;;3.10;;
38117;SDS011;23928;47.562;7.508;2023-04-12T08:58:09;3.80;;;2.50;;
38117;SDS011;23928;47.562;7.508;2023-04-12T09:00:40;3.90;;;2.63;;
38117;SDS011;23928;47.562;7.508;2023-04-12T09:03:06;4.50;;;3.37;;
38117;SDS011;23928;47.562;7.508;2023-04-12T09:05:34;5.83;;;2.80;;
38117;SDS011;23928;47.562;7.508;2023-04-12T09:08:00;4.57;;;2.93;;
38117;SDS011;23928;47.562;7.508;2023-04-12T09:10:30;5.73;;;2.80;;
38117;SDS011;23928;47.562;7.508;2023-04-12T09:13:01;4.50;;;2.50;;
38117;SDS011;23928;47.562;7.508;2023-04-12T09:15:28;4.77;;;3.07;;
38117;SDS011;23928;47.562;7.508;2023-04-12T09:18:04;5.60;;;3.70;;
38117;SDS011;23928;47.562;7.508;2023-04-12T09:20:32;4.20;;;2.47;;
38117;SDS011;23928;47.562;7.508;2023-04-12T09:22:58;5.87;;;3.03;;
38117;SDS011;23928;47.562;7.508;2023-04-12T09:25:34;4.53;;;2.50;;
38117;SDS011;23928;47.562;7.508;2023-04-12T09:28:16;1.90;;;1.63;;
38117;SDS011;23928;47.562;7.508;2023-04-12T09:30:43;1.37;;;1.20;;
38117;SDS011;23928;47.562;7.508;2023-04-12T09:33:12;2.77;;;1.30;;
38117;SDS011;23928;47.562;7.508;2023-04-12T09:35:37;3.57;;;1.40;;
38117;SDS011;23928;47.562;7.508;2023-04-12T09:38:06;3.23;;;1.20;;
38117;SDS011;23928;47.562;7.508;2023-04-12T09:40:33;2.67;;;1.40;;
38117;SDS011;23928;47.562;7.508;2023-04-12T09:43:00;3.37;;;1.67;;
38117;SDS011;23928;47.562;7.508;2023-04-12T09:45:26;3.53;;;1.10;;
38117;SDS011;23928;47.562;7.508;2023-04-12T09:47:52;2.63;;;1.20;;
38117;SDS011;23928;47.562;7.508;2023-04-12T09:52:54;2.70;;;1.27;;
38117;SDS011;23928;47.562;7.508;2023-04-12T09:55:21;2.33;;;1.40;;
38117;SDS011;23928;47.562;7.508;2023-04-12T09:57:49;2.93;;;1.30;;
38117;SDS011;23928;47.562;7.508;2023-04-12T10:00:16;4.17;;;1.57;;
38117;SDS011;23928;47.562;7.508;2023-04-12T10:02:43;1.37;;;1.27;;
38117;SDS011;23928;47.562;7.508;2023-04-12T10:05:17;4.10;;;1.43;;
38117;SDS011;23928;47.562;7.508;2023-04-12T10:07:44;1.50;;;1.40;;
38117;SDS011;23928;47.562;7.508;2023-04-12T10:10:12;2.57;;;1.40;;
38117;SDS011;23928;47.562;7.508;2023-04-12T10:12:40;2.23;;;1.50;;
38117;SDS011;23928;47.562;7.508;2023-04-12T10:15:08;4.23;;;1.40;;
38117;SDS011;23928;47.562;7.508;2023-04-12T10:17:41;1.93;;;1.40;;
38117;SDS011;23928;47.562;7.508;2023-04-12T10:20:09;4.37;;;1.70;;
38117;SDS011;23928;47.562;7.508;2023-04-12T10:22:37;3.70;;;1.70;;
38117;SDS011;23928;47.562;7.508;2023-04-12T10:25:15;2.77;;;1.67;;
38117;SDS011;23928;47.562;7.508;2023-04-12T10:27:43;2.17;;;1.47;;
38117;SDS011;23928;47.562;7.508;2023-04-12T10:38:18;4.50;;;1.90;;
38117;SDS011;23928;47.562;7.508;2023-04-12T10:43:43;1.53;;;1.27;;
38117;SDS011;23928;47.562;7.508;2023-04-12T10:49:09;1.60;;;1.20;;
38117;SDS011;23928;47.562;7.508;2023-04-12T10:51:35;1.10;;;0.83;;
38117;SDS011;23928;47.562;7.508;2023-04-12T10:59:01;4.10;;;1.33;;
38117;SDS011;23928;47.562;7.508;2023-04-12T11:01:27;1.87;;;1.43;;
38117;SDS011;23928;47.562;7.508;2023-04-12T11:04:09;3.13;;;0.97;;
38117;SDS011;23928;47.562;7.508;2023-04-12T11:09:17;1.50;;;1.40;;
38117;SDS011;23928;47.562;7.508;2023-04-12T11:11:49;1.27;;;0.80;;
38117;SDS011;23928;47.562;7.508;2023-04-12T11:14:24;2.80;;;1.23;;
38117;SDS011;23928;47.562;7.508;2023-04-12T11:19:33;2.10;;;1.10;;
38117;SDS011;23928;47.562;7.508;2023-04-12T11:22:02;0.93;;;0.83;;
38117;SDS011;23928;47.562;7.508;2023-04-12T11:24:29;2.60;;;0.93;;
38117;SDS011;23928;47.562;7.508;2023-04-12T11:26:55;1.00;;;0.90;;
38117;SDS011;23928;47.562;7.508;2023-04-12T11:29:22;1.03;;;0.80;;
38117;SDS011;23928;47.562;7.508;2023-04-12T11:31:48;2.03;;;1.23;;
38117;SDS011;23928;47.562;7.508;2023-04-12T11:34:17;2.17;;;1.20;;
38117;SDS011;23928;47.562;7.508;2023-04-12T11:36:51;3.10;;;1.10;;
38117;SDS011;23928;47.562;7.508;2023-04-12T11:39:17;1.00;;;0.90;;
38117;SDS011;23928;47.562;7.508;2023-04-12T11:41:44;1.10;;;1.00;;
38117;SDS011;23928;47.562;7.508;2023-04-12T11:44:11;0.97;;;0.77;;
38117;SDS011;23928;47.562;7.508;2023-04-12T11:46:37;1.10;;;0.80;;
38117;SDS011;23928;47.562;7.508;2023-04-12T11:49:03;1.13;;;0.93;;
38117;SDS011;23928;47.562;7.508;2023-04-12T11:51:29;2.20;;;0.90;;
38117;SDS011;23928;47.562;7.508;2023-04-12T11:53:56;3.40;;;1.43;;
38117;SDS011;23928;47.562;7.508;2023-04-12T11:56:23;1.30;;;1.10;;
38117;SDS011;23928;47.562;7.508;2023-04-12T11:58:52;3.57;;;0.80;;
38117;SDS011;23928;47.562;7.508;2023-04-12T12:01:18;1.60;;;0.70;;
38117;SDS011;23928;47.562;7.508;2023-04-12T12:03:45;0.80;;;0.80;;
38117;SDS011;23928;47.562;7.508;2023-04-12T12:06:12;2.80;;;0.90;;
38117;SDS011;23928;47.562;7.508;2023-04-12T12:08:38;3.50;;;0.90;;
38117;SDS011;23928;47.562;7.508;2023-04-12T12:11:04;2.00;;;1.07;;
38117;SDS011;23928;47.562;7.508;2023-04-12T12:13:53;1.47;;;1.17;;
38117;SDS011;23928;47.562;7.508;2023-04-12T12:16:26;1.40;;;0.97;;
38117;SDS011;23928;47.562;7.508;2023-04-12T12:18:53;1.20;;;1.07;;
38117;SDS011;23928;47.562;7.508;2023-04-12T12:21:19;2.90;;;1.00;;
38117;SDS011;23928;47.562;7.508;2023-04-12T12:23:45;1.20;;;1.10;;
38117;SDS011;23928;47.562;7.508;2023-04-12T12:26:23;1.33;;;0.70;;
38117;SDS011;23928;47.562;7.508;2023-04-12T12:28:54;0.83;;;0.50;;
38117;SDS011;23928;47.562;7.508;2023-04-12T12:31:21;3.10;;;0.80;;
38117;SDS011;23928;47.562;7.508;2023-04-12T12:33:48;1.63;;;0.80;;
38117;SDS011;23928;47.562;7.508;2023-04-12T12:36:18;1.87;;;1.30;;
38117;SDS011;23928;47.562;7.508;2023-04-12T12:38:46;1.60;;;0.83;;
38117;SDS011;23928;47.562;7.508;2023-04-12T12:41:14;0.67;;;0.67;;
38117;SDS011;23928;47.562;7.508;2023-04-12T12:43:44;1.63;;;1.10;;
38117;SDS011;23928;47.562;7.508;2023-04-12T12:46:10;0.50;;;0.40;;
38117;SDS011;23928;47.562;7.508;2023-04-12T12:48:39;2.80;;;1.80;;
38117;SDS011;23928;47.562;7.508;2023-04-12T12:51:06;1.80;;;1.43;;
38117;SDS011;23928;47.562;7.508;2023-04-12T12:53:33;1.00;;;0.70;;
38117;SDS011;23928;47.562;7.508;2023-04-12T12:55:59;0.87;;;0.70;;
38117;SDS011;23928;47.562;7.508;2023-04-12T12:58:24;5.87;;;3.53;;
38117;SDS011;23928;47.562;7.508;2023-04-12T13:00:51;0.77;;;0.60;;
38117;SDS011;23928;47.562;7.508;2023-04-12T13:03:16;0.47;;;0.47;;
38117;SDS011;23928;47.562;7.508;2023-04-12T13:05:42;0.50;;;0.50;;
38117;SDS011;23928;47.562;7.508;2023-04-12T13:08:07;2.20;;;0.70;;
38117;SDS011;23928;47.562;7.508;2023-04-12T13:10:33;1.17;;;0.40;;
38117;SDS011;23928;47.562;7.508;2023-04-12T13:12:59;1.23;;;0.50;;
38117;SDS011;23928;47.562;7.508;2023-04-12T13:15:25;0.20;;;0.10;;
38117;SDS011;23928;47.562;7.508;2023-04-12T13:17:51;1.23;;;0.50;;
38117;SDS011;23928;47.562;7.508;2023-04-12T13:20:17;0.30;;;0.30;;
38117;SDS011;23928;47.562;7.508;2023-04-12T13:22:42;0.60;;;0.50;;
38117;SDS011;23928;47.562;7.508;2023-04-12T13:25:08;1.27;;;0.40;;
38117;SDS011;23928;47.562;7.508;2023-04-12T13:27:34;0.50;;;0.40;;
38117;SDS011;23928;47.562;7.508;2023-04-12T13:30:00;1.00;;;0.50;;
38117;SDS011;23928;47.562;7.508;2023-04-12T13:32:26;1.23;;;0.43;;
38117;SDS011;23928;47.562;7.508;2023-04-12T13:34:51;0.70;;;0.40;;
38117;SDS011;23928;47.562;7.508;2023-04-12T13:37:17;0.50;;;0.50;;
38117;SDS011;23928;47.562;7.508;2023-04-12T13:39:42;0.60;;;0.50;;
38117;SDS011;23928;47.562;7.508;2023-04-12T13:42:08;0.60;;;0.50;;
38117;SDS011;23928;47.562;7.508;2023-04-12T13:44:34;0.20;;;0.20;;
38117;SDS011;23928;47.562;7.508;2023-04-12T13:47:00;0.97;;;0.70;;
38117;SDS011;23928;47.562;7.508;2023-04-12T13:49:27;0.60;;;0.60;;
38117;SDS011;23928;47.562;7.508;2023-04-12T13:51:52;0.70;;;0.70;;
38117;SDS011;23928;47.562;7.508;2023-04-12T13:54:19;0.50;;;0.50;;
38117;SDS011;23928;47.562;7.508;2023-04-12T13:56:44;0.97;;;0.57;;
38117;SDS011;23928;47.562;7.508;2023-04-12T13:59:10;0.73;;;0.50;;
38117;SDS011;23928;47.562;7.508;2023-04-12T14:01:36;0.53;;;0.33;;
38117;SDS011;23928;47.562;7.508;2023-04-12T14:04:02;1.47;;;0.63;;
38117;SDS011;23928;47.562;7.508;2023-04-12T14:06:28;0.47;;;0.40;;
38117;SDS011;23928;47.562;7.508;2023-04-12T14:08:54;0.97;;;0.50;;
38117;SDS011;23928;47.562;7.508;2023-04-12T14:11:21;0.87;;;0.47;;
38117;SDS011;23928;47.562;7.508;2023-04-12T14:13:47;1.30;;;0.57;;
38117;SDS011;23928;47.562;7.508;2023-04-12T14:16:13;0.57;;;0.50;;
38117;SDS011;23928;47.562;7.508;2023-04-12T14:18:39;0.50;;;0.50;;
38117;SDS011;23928;47.562;7.508;2023-04-12T14:21:04;0.60;;;0.60;;
38117;SDS011;23928;47.562;7.508;2023-04-12T14:23:31;0.40;;;0.40;;
38117;SDS011;23928;47.562;7.508;2023-04-12T14:25:56;1.13;;;0.80;;
38117;SDS011;23928;47.562;7.508;2023-04-12T14:28:22;1.87;;;0.60;;
38117;SDS011;23928;47.562;7.508;2023-04-12T14:30:52;0.70;;;0.70;;
38117;SDS011;23928;47.562;7.508;2023-04-12T14:33:18;1.03;;;0.53;;
38117;SDS011;23928;47.562;7.508;2023-04-12T14:35:44;0.60;;;0.60;;
38117;SDS011;23928;47.562;7.508;2023-04-12T14:38:10;0.40;;;0.40;;
38117;SDS011;23928;47.562;7.508;2023-04-12T14:40:36;1.80;;;0.50;;
38117;SDS011;23928;47.562;7.508;2023-04-12T14:43:02;1.40;;;0.60;;
38117;SDS011;23928;47.562;7.508;2023-04-12T14:45:28;0.77;;;0.53;;
38117;SDS011;23928;47.562;7.508;2023-04-12T14:47:53;1.50;;;0.60;;
38117;SDS011;23928;47.562;7.508;2023-04-12T14:50:19;4.07;;;0.70;;
38117;SDS011;23928;47.562;7.508;2023-04-12T14:52:45;0.37;;;0.37;;
38117;SDS011;23928;47.562;7.508;2023-04-12T14:55:11;1.40;;;0.40;;
38117;SDS011;23928;47.562;7.508;2023-04-12T14:57:37;0.50;;;0.50;;
38117;SDS011;23928;47.562;7.508;2023-04-12T15:00:04;1.97;;;0.50;;
38117;SDS011;23928;47.562;7.508;2023-04-12T15:02:36;0.60;;;0.60;;
38117;SDS011;23928;47.562;7.508;2023-04-12T15:05:02;1.17;;;0.63;;
38117;SDS011;23928;47.562;7.508;2023-04-12T15:07:31;0.73;;;0.73;;
38117;SDS011;23928;47.562;7.508;2023-04-12T15:09:56;1.27;;;0.43;;
38117;SDS011;23928;47.562;7.508;2023-04-12T15:12:23;0.40;;;0.33;;
38117;SDS011;23928;47.562;7.508;2023-04-12T15:14:49;0.70;;;0.30;;
38117;SDS011;23928;47.562;7.508;2023-04-12T15:17:18;0.47;;;0.40;;
38117;SDS011;23928;47.562;7.508;2023-04-12T15:19:44;0.40;;;0.40;;
38117;SDS011;23928;47.562;7.508;2023-04-12T15:22:10;0.67;;;0.60;;
38117;SDS011;23928;47.562;7.508;2023-04-12T15:24:36;1.13;;;0.50;;
38117;SDS011;23928;47.562;7.508;2023-04-12T15:27:02;0.47;;;0.47;;
38117;SDS011;23928;47.562;7.508;2023-04-12T15:29:28;1.20;;;0.50;;